Watertown, WI (53098)

8:34 PM CST on March 06, 2015 (GMT -0600)
K9LUK's Station | Change Station
CLOSE
Current Station
Personal Weather Station
Location: Watertown, WI
Elevation: 834 ft
Nearby Weather Stations

Elev 834 ft 43.20 °N, 88.75 °W | Updated 43 seconds ago

Clear
Clear
23.3 °F
Feels Like 23 °F
N
0.0
Wind Variable Wind from South
Gusts 5.0 mph

Today
High -- | Low -- °F
--% Chance of Precip.
Yesterday
High -- | Low -- °F
Precip. -- in
6:22 AM 5:49 PM
Full, 98% visible
Pressure 30.09 in
Visibility 10.0 miles
Clouds Clear
Windchill 23 °F
Dew Point 16 °F
Humidity 72%
Rainfall in
Snow Depth Not available.
UV 0 out of 12
Pollen .40 out of 12
Air Quality Not available.
Flu Activity Not available.
METAR KRYV 070215Z AUTO 21006KT 10SM CLR M05/M09 A3009 RMK AO2 T10551086

More Conditions Fewer Conditions

Pressure 30.09 in
Visibility 10.0 miles
Clouds Clear
Windchill 23 °F
Dew Point 16 °F
Humidity 72%
Rainfall in
Snow Depth Not available.
UV 0 out of 12
Pollen .40 out of 12
Air Quality Not available.
Flu Activity Not available.
METAR KRYV 070215Z AUTO 21006KT 10SM CLR M05/M09 A3009 RMK AO2 T10551086

More Conditions Fewer Conditions

10-Day Weather Forecast

Almanac

Astronomy

Mar. 06, 2015 Rise Set
Actual Time
Civil Twilight
Nautical Twilight
Astronomical Twilight
Moon
Length of Visible Light
Length of Day
Tomorrow will be .
, % of the Moon is Illuminated

Today's Extremes

State Highs State Lows

Community

WunderPhotos

Upload Photos

1,803,500 photos uploaded!

WunderBlogs® & News

Nearby

Air Quality

  Air Quality AQ Index Pollutant
Not available.

Snow Depth

Station Depth Elevation

Earthquake Activity

City Distance Mag. Time & Date
Minimum magnitude displayed is 2.5.

Coastal Water Temperatures

Place Temperature

Nearby Weather Stations